Lebanon, Oklahoma
Current Conditions -  °F | °C
As of 11:55 AM on Friday 24 Oct 2014 (Local Time) from K1F0 Reporting Station
Clear Clear  
Wind Chill: 73°   Ceiling: Unl
Heat Index: 73°   Visibility: 10mi
Dew Point: 59°   Wind: 8mph
Humidity: 61%   Direction: 190°S
Pressure: 30.14"   Gusts: NA
Location:  33.99°N, 96.91°W
Report Text: K1F0 241655Z AUTO 19007KT 10SM CLR 23/15 A3014 RMK AO2
Loading
Personal Weather Stations






























Interactive Weather Map
Tropical Storm Tracking
New forecast layout! Learn more

10-Day Weather Forecast

Advertisements
Track Severe Weather on mobile